createdAt,value
2016-08-13T00:00:01.923Z,22.6
2016-08-13T00:00:13.164Z,22.6
2016-08-13T00:00:24.422Z,22.6
2016-08-13T00:00:35.669Z,22.6
2016-08-13T00:00:46.915Z,22.6
2016-08-13T00:00:58.147Z,22.7
2016-08-13T00:01:09.396Z,22.6
2016-08-13T00:01:19.907Z,22.7
2016-08-13T00:01:31.149Z,22.6
2016-08-13T00:01:42.386Z,22.5
2016-08-13T00:01:53.627Z,22.6
2016-08-13T00:02:04.853Z,22.7
2016-08-13T00:02:16.081Z,22.7
2016-08-13T00:02:26.584Z,22.5
2016-08-13T00:02:37.814Z,22.6
2016-08-13T00:02:49.047Z,22.6
2016-08-13T00:03:00.276Z,22.5
2016-08-13T00:03:11.501Z,22.6
2016-08-13T00:03:22.727Z,22.6
2016-08-13T00:03:33.219Z,22.7
2016-08-13T00:03:43.716Z,22.7
2016-08-13T00:03:54.940Z,22.6
2016-08-13T00:04:06.168Z,22.6
2016-08-13T00:04:17.403Z,22.5
2016-08-13T00:04:28.630Z,22.6
2016-08-13T00:04:39.132Z,22.6
2016-08-13T00:04:49.621Z,22.5
2016-08-13T00:05:00.851Z,22.5
2016-08-13T00:05:11.349Z,22.5
2016-08-13T00:05:22.575Z,22.5
2016-08-13T00:05:33.799Z,22.5
2016-08-13T00:05:45.026Z,22.5
2016-08-13T00:05:56.252Z,22.6
2016-08-13T00:06:07.474Z,22.5
2016-08-13T00:06:18.701Z,22.7
2016-08-13T00:06:29.925Z,22.6
2016-08-13T00:06:41.149Z,22.6
2016-08-13T00:06:52.380Z,22.5
2016-08-13T00:07:03.608Z,22.5
2016-08-13T00:07:14.831Z,22.5
2016-08-13T00:07:26.057Z,22.5
2016-08-13T00:07:37.291Z,22.5
2016-08-13T00:07:48.513Z,22.5
2016-08-13T00:07:59.746Z,22.6
2016-08-13T00:08:10.968Z,22.6
2016-08-13T00:08:22.192Z,22.5
2016-08-13T00:08:33.416Z,22.5
2016-08-13T00:08:43.911Z,22.5
2016-08-13T00:08:55.149Z,22.5
2016-08-13T00:09:06.378Z,22.5
2016-08-13T00:09:17.607Z,22.6
2016-08-13T00:09:28.829Z,22.7
2016-08-13T00:09:40.052Z,22.5
2016-08-13T00:09:51.287Z,22.7
2016-08-13T00:10:02.521Z,22.6
2016-08-13T00:10:13.744Z,22.6
2016-08-13T00:10:24.969Z,22.7
2016-08-13T00:10:36.197Z,22.7
2016-08-13T00:10:47.421Z,22.7
2016-08-13T00:10:58.644Z,22.6
2016-08-13T00:11:09.144Z,22.7
2016-08-13T00:11:20.369Z,22.6
2016-08-13T00:11:31.606Z,22.6
2016-08-13T00:11:42.841Z,22.6
2016-08-13T00:11:54.062Z,22.7
2016-08-13T00:12:05.290Z,22.6
2016-08-13T00:12:16.512Z,22.7
2016-08-13T00:12:27.737Z,22.6
2016-08-13T00:12:38.966Z,22.5
2016-08-13T00:12:49.456Z,22.6
2016-08-13T00:12:59.956Z,22.6
2016-08-13T00:13:11.179Z,22.6
2016-08-13T00:13:22.403Z,22.5
2016-08-13T00:13:33.629Z,22.6
2016-08-13T00:13:44.849Z,22.7
2016-08-13T00:13:56.071Z,22.7
2016-08-13T00:14:07.302Z,22.7
2016-08-13T00:14:18.534Z,22.6
2016-08-13T00:14:29.759Z,22.7
2016-08-13T00:14:40.983Z,22.6
2016-08-13T00:14:52.210Z,22.6
2016-08-13T00:15:03.446Z,22.5
2016-08-13T00:15:14.669Z,22.6
2016-08-13T00:15:25.895Z,22.5
2016-08-13T00:15:37.123Z,22.6
2016-08-13T00:15:48.346Z,22.7
2016-08-13T00:15:59.574Z,22.6
2016-08-13T00:16:10.795Z,22.5
2016-08-13T00:16:22.019Z,22.6
2016-08-13T00:16:33.253Z,22.7
2016-08-13T00:16:44.484Z,22.7
2016-08-13T00:16:55.720Z,22.6
2016-08-13T00:17:06.932Z,22.5
2016-08-13T00:17:18.157Z,22.7
2016-08-13T00:17:29.391Z,22.5
2016-08-13T00:17:40.610Z,22.7
2016-08-13T00:17:51.103Z,22.5
2016-08-13T00:18:01.608Z,22.5
2016-08-13T00:18:12.835Z,22.5
2016-08-13T00:18:24.064Z,22.6
2016-08-13T00:18:35.288Z,22.6
2016-08-13T00:18:45.785Z,22.6
2016-08-13T00:18:57.013Z,22.7
2016-08-13T00:19:07.509Z,22.7
2016-08-13T00:19:18.736Z,22.5
2016-08-13T00:19:29.229Z,22.5
2016-08-13T00:19:40.456Z,22.6
2016-08-13T00:19:51.689Z,22.5
2016-08-13T00:20:02.910Z,22.5
2016-08-13T00:20:14.138Z,22.6
2016-08-13T00:20:25.365Z,22.6
2016-08-13T00:20:36.598Z,22.6
2016-08-13T00:20:47.826Z,22.5
2016-08-13T00:20:59.059Z,22.5
2016-08-13T00:21:10.292Z,22.5
2016-08-13T00:21:21.519Z,22.5
2016-08-13T00:21:32.747Z,22.5
2016-08-13T00:21:43.242Z,22.5
2016-08-13T00:21:54.470Z,22.5
2016-08-13T00:22:05.704Z,22.6
2016-08-13T00:22:16.923Z,22.6
2016-08-13T00:22:28.149Z,22.6
2016-08-13T00:22:39.379Z,22.6
2016-08-13T00:22:50.644Z,22.5
2016-08-13T00:23:01.870Z,22.5
2016-08-13T00:23:12.364Z,22.6
2016-08-13T00:23:23.591Z,22.6
2016-08-13T00:23:34.824Z,22.6
2016-08-13T00:23:46.049Z,22.6
2016-08-13T00:23:57.273Z,22.5
2016-08-13T00:24:08.496Z,22.5
2016-08-13T00:24:19.717Z,22.7
2016-08-13T00:24:30.946Z,22.7
2016-08-13T00:24:42.168Z,22.5
2016-08-13T00:24:53.392Z,22.5
2016-08-13T00:25:04.618Z,22.7
2016-08-13T00:25:15.842Z,22.6
2016-08-13T00:25:26.337Z,22.5
2016-08-13T00:25:37.567Z,22.5
2016-08-13T00:25:48.075Z,22.6
2016-08-13T00:25:59.295Z,22.6
2016-08-13T00:26:10.524Z,22.5
2016-08-13T00:26:21.747Z,22.5
2016-08-13T00:26:32.970Z,22.5
2016-08-13T00:26:43.476Z,22.7
2016-08-13T00:26:54.702Z,22.6
2016-08-13T00:27:05.200Z,22.6
2016-08-13T00:27:16.429Z,22.6
2016-08-13T00:27:27.654Z,22.7
2016-08-13T00:27:38.154Z,22.7
2016-08-13T00:27:48.646Z,22.6
2016-08-13T00:27:59.878Z,22.6
2016-08-13T00:28:11.100Z,22.6
2016-08-13T00:28:22.322Z,22.6
2016-08-13T00:28:33.545Z,22.6
2016-08-13T00:28:44.775Z,22.7
2016-08-13T00:28:55.999Z,22.6
2016-08-13T00:29:07.234Z,22.7
2016-08-13T00:29:18.457Z,22.7
2016-08-13T00:29:29.683Z,22.7
2016-08-13T00:29:40.914Z,22.7
2016-08-13T00:29:52.138Z,22.6
2016-08-13T00:30:03.367Z,22.7
2016-08-13T00:30:14.587Z,22.7
2016-08-13T00:30:25.085Z,22.7
2016-08-13T00:30:36.322Z,22.7
2016-08-13T00:30:47.549Z,22.7
2016-08-13T00:30:58.773Z,22.7
2016-08-13T00:31:10.003Z,22.6
2016-08-13T00:31:21.227Z,22.6
2016-08-13T00:31:32.456Z,22.7
2016-08-13T00:31:43.682Z,22.7
2016-08-13T00:31:54.911Z,22.6
2016-08-13T00:32:06.139Z,22.5
2016-08-13T00:32:17.365Z,22.6
2016-08-13T00:32:28.591Z,22.5
2016-08-13T00:32:39.815Z,22.5
2016-08-13T00:32:51.043Z,22.6
2016-08-13T00:33:02.263Z,22.6
2016-08-13T00:33:13.486Z,22.6
2016-08-13T00:33:23.988Z,22.6
2016-08-13T00:33:35.214Z,22.6
2016-08-13T00:33:45.711Z,22.6
2016-08-13T00:33:56.210Z,22.7
2016-08-13T00:34:07.437Z,22.5
2016-08-13T00:34:18.661Z,22.6
2016-08-13T00:34:29.887Z,22.6
2016-08-13T00:34:41.111Z,22.7
2016-08-13T00:34:52.334Z,22.6
2016-08-13T00:35:03.560Z,22.7
2016-08-13T00:35:14.786Z,22.6
2016-08-13T00:35:26.008Z,22.5
2016-08-13T00:35:37.234Z,22.6
2016-08-13T00:35:47.734Z,22.6
2016-08-13T00:35:58.958Z,22.6
2016-08-13T00:36:10.184Z,22.7
2016-08-13T00:36:21.411Z,22.6
2016-08-13T00:36:32.637Z,22.7
2016-08-13T00:36:43.864Z,22.7
2016-08-13T00:36:55.089Z,22.7
2016-08-13T00:37:06.317Z,22.6
2016-08-13T00:37:17.543Z,22.6
2016-08-13T00:37:28.770Z,22.7
2016-08-13T00:37:39.994Z,22.5
2016-08-13T00:37:51.220Z,22.7
2016-08-13T00:38:02.459Z,22.6
2016-08-13T00:38:13.686Z,22.7
2016-08-13T00:38:24.905Z,22.5
2016-08-13T00:38:36.136Z,22.5
2016-08-13T00:38:47.360Z,22.5
2016-08-13T00:38:58.581Z,22.5
2016-08-13T00:39:09.807Z,22.6
2016-08-13T00:39:21.030Z,22.5
2016-08-13T00:39:32.256Z,22.5
2016-08-13T00:39:42.750Z,22.5
2016-08-13T00:39:53.974Z,22.6
2016-08-13T00:40:05.198Z,22.5
2016-08-13T00:40:16.427Z,22.5
2016-08-13T00:40:26.831Z,22.5
2016-08-13T00:40:38.064Z,22.5
2016-08-13T00:40:49.284Z,22.5
2016-08-13T00:40:59.778Z,22.6
2016-08-13T00:41:11.008Z,22.6
2016-08-13T00:41:22.235Z,22.5
2016-08-13T00:41:33.462Z,22.5
2016-08-13T00:41:44.693Z,22.5
2016-08-13T00:41:55.921Z,22.5
2016-08-13T00:42:07.158Z,22.6
2016-08-13T00:42:18.395Z,22.5
2016-08-13T00:42:29.635Z,22.6
2016-08-13T00:42:40.866Z,22.5
2016-08-13T00:42:52.098Z,22.5
2016-08-13T00:43:02.600Z,22.6
2016-08-13T00:43:13.111Z,22.5
2016-08-13T00:43:24.347Z,22.5
2016-08-13T00:43:35.586Z,22.5
2016-08-13T00:43:46.828Z,22.5
2016-08-13T00:43:58.068Z,22.5
2016-08-13T00:44:09.311Z,22.5
2016-08-13T00:44:20.550Z,22.5
2016-08-13T00:44:31.795Z,22.5
2016-08-13T00:44:43.035Z,22.6
2016-08-13T00:44:54.272Z,22.5
2016-08-13T00:45:04.784Z,22.6
2016-08-13T00:45:15.306Z,22.5
2016-08-13T00:45:26.542Z,22.5
2016-08-13T00:45:37.781Z,22.5
2016-08-13T00:45:49.020Z,22.5
2016-08-13T00:46:00.262Z,22.6
2016-08-13T00:46:11.500Z,22.6
2016-08-13T00:46:22.739Z,22.5
2016-08-13T00:46:33.980Z,22.5
2016-08-13T00:46:45.223Z,22.6
2016-08-13T00:46:56.465Z,22.5
2016-08-13T00:47:07.706Z,22.5
2016-08-13T00:47:18.943Z,22.6
2016-08-13T00:47:30.177Z,22.5
2016-08-13T00:47:41.403Z,22.5
2016-08-13T00:47:52.623Z,22.6
2016-08-13T00:48:03.849Z,22.6
2016-08-13T00:48:15.083Z,22.5
2016-08-13T00:48:26.306Z,22.5
2016-08-13T00:48:37.534Z,22.5
2016-08-13T00:48:48.768Z,22.6
2016-08-13T00:48:59.264Z,22.6
2016-08-13T00:49:10.491Z,22.6
2016-08-13T00:49:21.718Z,22.5
2016-08-13T00:49:32.945Z,22.6
2016-08-13T00:49:44.170Z,22.6
2016-08-13T00:49:54.662Z,22.6
2016-08-13T00:50:05.848Z,22.5
2016-08-13T00:50:17.048Z,22.5
2016-08-13T00:50:28.273Z,22.5
2016-08-13T00:50:39.478Z,22.6
2016-08-13T00:50:50.692Z,22.5
2016-08-13T00:51:01.912Z,22.5
2016-08-13T00:51:13.099Z,22.5
2016-08-13T00:51:24.294Z,22.5
2016-08-13T00:51:35.486Z,22.5
2016-08-13T00:51:46.697Z,22.5
2016-08-13T00:51:57.897Z,22.5
2016-08-13T00:52:09.089Z,22.6
2016-08-13T00:52:19.560Z,22.5
2016-08-13T00:52:30.021Z,22.5
2016-08-13T00:52:41.212Z,22.6
2016-08-13T00:52:52.404Z,22.5
2016-08-13T00:53:02.900Z,22.4
2016-08-13T00:53:14.126Z,22.5
2016-08-13T00:53:25.350Z,22.6
2016-08-13T00:53:36.571Z,22.5
2016-08-13T00:53:47.067Z,22.6
2016-08-13T00:53:58.290Z,22.5
2016-08-13T00:54:09.509Z,22.5
2016-08-13T00:54:20.741Z,22.6
2016-08-13T00:54:31.963Z,22.4
2016-08-13T00:54:43.195Z,22.6
2016-08-13T00:54:54.419Z,22.5
2016-08-13T00:55:05.647Z,22.6
2016-08-13T00:55:16.141Z,22.6
2016-08-13T00:55:27.365Z,22.5
2016-08-13T00:55:38.597Z,22.4
2016-08-13T00:55:49.821Z,22.5
2016-08-13T00:56:01.047Z,22.5
2016-08-13T00:56:12.278Z,22.4
2016-08-13T00:56:23.502Z,22.4
2016-08-13T00:56:34.730Z,22.5
2016-08-13T00:56:45.955Z,22.5
2016-08-13T00:56:57.181Z,22.4
2016-08-13T00:57:07.671Z,22.5
2016-08-13T00:57:18.897Z,22.5
2016-08-13T00:57:30.121Z,22.4
2016-08-13T00:57:40.620Z,22.5
2016-08-13T00:57:51.845Z,22.4
2016-08-13T00:58:03.071Z,22.4
2016-08-13T00:58:14.302Z,22.5
2016-08-13T00:58:24.792Z,22.5
2016-08-13T00:58:36.017Z,22.5
2016-08-13T00:58:47.244Z,22.5
2016-08-13T00:58:58.471Z,22.4
2016-08-13T00:59:09.695Z,22.5
2016-08-13T00:59:20.920Z,22.5
2016-08-13T00:59:32.144Z,22.5
2016-08-13T00:59:43.368Z,22.5
2016-08-13T00:59:54.595Z,22.5
2016-08-13T01:00:05.819Z,22.5
2016-08-13T01:00:16.315Z,22.5
2016-08-13T01:00:27.540Z,22.4
2016-08-13T01:00:38.761Z,22.5
2016-08-13T01:00:49.984Z,22.4
2016-08-13T01:01:01.207Z,22.5
2016-08-13T01:01:12.437Z,22.4
2016-08-13T01:01:23.666Z,22.5
2016-08-13T01:01:34.895Z,22.5
2016-08-13T01:01:46.123Z,22.5
2016-08-13T01:01:57.348Z,22.4
2016-08-13T01:02:08.572Z,22.4
2016-08-13T01:02:19.801Z,22.4
2016-08-13T01:02:31.023Z,22.4
2016-08-13T01:02:42.248Z,22.5
2016-08-13T01:02:53.474Z,22.4
2016-08-13T01:03:04.706Z,22.4
2016-08-13T01:03:15.931Z,22.4
2016-08-13T01:03:27.157Z,22.4
2016-08-13T01:03:37.652Z,22.5
2016-08-13T01:03:48.151Z,22.4
2016-08-13T01:03:59.373Z,22.5
2016-08-13T01:04:10.607Z,22.5
2016-08-13T01:04:21.833Z,22.5
2016-08-13T01:04:33.058Z,22.4
2016-08-13T01:04:44.284Z,22.4
2016-08-13T01:04:54.778Z,22.4
2016-08-13T01:05:06.005Z,22.4
2016-08-13T01:05:17.235Z,22.5
2016-08-13T01:05:28.462Z,22.3
2016-08-13T01:05:39.686Z,22.4
2016-08-13T01:05:50.903Z,22.4
2016-08-13T01:06:02.129Z,22.4
2016-08-13T01:06:13.357Z,22.4
2016-08-13T01:06:24.587Z,22.4
2016-08-13T01:06:35.806Z,22.4
2016-08-13T01:06:47.032Z,22.4
2016-08-13T01:06:58.258Z,22.4
2016-08-13T01:07:09.483Z,22.5
2016-08-13T01:07:20.705Z,22.4
2016-08-13T01:07:31.928Z,22.4
2016-08-13T01:07:43.155Z,22.4
2016-08-13T01:07:54.391Z,22.3
2016-08-13T01:08:04.880Z,22.4
2016-08-13T01:08:15.381Z,22.4
2016-08-13T01:08:26.610Z,22.5
2016-08-13T01:08:37.834Z,22.4
2016-08-13T01:08:48.334Z,22.5
2016-08-13T01:08:59.562Z,22.4
2016-08-13T01:09:10.790Z,22.4
2016-08-13T01:09:22.021Z,22.5
2016-08-13T01:09:33.241Z,22.3
2016-08-13T01:09:44.472Z,22.4
2016-08-13T01:09:55.694Z,22.5
2016-08-13T01:10:06.189Z,22.4
2016-08-13T01:10:17.415Z,22.4
2016-08-13T01:10:28.636Z,22.4
2016-08-13T01:10:39.860Z,22.4
2016-08-13T01:10:50.356Z,22.4
2016-08-13T01:11:01.584Z,22.5
2016-08-13T01:11:12.809Z,22.5
2016-08-13T01:11:24.035Z,22.5
2016-08-13T01:11:35.259Z,22.4
2016-08-13T01:11:46.483Z,22.5
2016-08-13T01:11:57.708Z,22.5
2016-08-13T01:12:08.942Z,22.5
2016-08-13T01:12:20.165Z,22.4
2016-08-13T01:12:31.399Z,22.5
2016-08-13T01:12:42.622Z,22.4
2016-08-13T01:12:53.850Z,22.4
2016-08-13T01:13:05.080Z,22.4
2016-08-13T01:13:15.574Z,22.4
2016-08-13T01:13:26.802Z,22.5
2016-08-13T01:13:37.293Z,22.4
2016-08-13T01:13:48.516Z,22.4
2016-08-13T01:13:59.739Z,22.5
2016-08-13T01:14:10.971Z,22.4
2016-08-13T01:14:22.199Z,22.4
2016-08-13T01:14:33.427Z,22.4
2016-08-13T01:14:44.650Z,22.3
2016-08-13T01:14:55.878Z,22.4
2016-08-13T01:15:07.101Z,22.4
2016-08-13T01:15:18.326Z,22.5
2016-08-13T01:15:28.819Z,22.5
2016-08-13T01:15:40.048Z,22.5
2016-08-13T01:15:51.272Z,22.5
2016-08-13T01:16:02.492Z,22.4
2016-08-13T01:16:13.717Z,22.4
2016-08-13T01:16:24.210Z,22.5
2016-08-13T01:16:35.437Z,22.5
2016-08-13T01:16:46.662Z,22.3
2016-08-13T01:16:57.887Z,22.4
2016-08-13T01:17:08.387Z,22.4
2016-08-13T01:17:19.613Z,22.3
2016-08-13T01:17:30.840Z,22.4
2016-08-13T01:17:42.067Z,22.4
2016-08-13T01:17:53.289Z,22.5
2016-08-13T01:18:04.515Z,22.5
2016-08-13T01:18:15.740Z,22.4
2016-08-13T01:18:26.968Z,22.3
2016-08-13T01:18:38.193Z,22.3
2016-08-13T01:18:49.416Z,22.3
2016-08-13T01:19:00.643Z,22.4
2016-08-13T01:19:11.870Z,22.4
2016-08-13T01:19:23.099Z,22.5
2016-08-13T01:19:33.599Z,22.4
2016-08-13T01:19:44.825Z,22.4
2016-08-13T01:19:55.320Z,22.5
2016-08-13T01:20:06.545Z,22.4
2016-08-13T01:20:17.772Z,22.4
2016-08-13T01:20:29.003Z,22.4
2016-08-13T01:20:40.233Z,22.5
2016-08-13T01:20:51.457Z,22.4
2016-08-13T01:21:02.683Z,22.4
2016-08-13T01:21:13.909Z,22.3
2016-08-13T01:21:25.133Z,22.4
2016-08-13T01:21:36.361Z,22.5
2016-08-13T01:21:46.861Z,22.5
2016-08-13T01:21:58.084Z,22.4
2016-08-13T01:22:09.310Z,22.3
2016-08-13T01:22:20.535Z,22.4
2016-08-13T01:22:31.757Z,22.3
2016-08-13T01:22:42.981Z,22.5
2016-08-13T01:22:54.205Z,22.4
2016-08-13T01:23:05.429Z,22.4
2016-08-13T01:23:16.656Z,22.3
2016-08-13T01:23:27.154Z,22.3
2016-08-13T01:23:38.381Z,22.3
2016-08-13T01:23:49.608Z,22.3
2016-08-13T01:24:00.835Z,22.3
2016-08-13T01:24:12.056Z,22.4
2016-08-13T01:24:23.287Z,22.4
2016-08-13T01:24:34.509Z,22.3
2016-08-13T01:24:45.008Z,22.3
2016-08-13T01:24:56.239Z,22.4
2016-08-13T01:25:07.458Z,22.4
2016-08-13T01:25:18.683Z,22.3
2016-08-13T01:25:29.909Z,22.5
2016-08-13T01:25:41.136Z,22.4
2016-08-13T01:25:52.363Z,22.4
2016-08-13T01:26:03.591Z,22.4
2016-08-13T01:26:16.022Z,22.4
2016-08-13T01:26:27.250Z,22.5
2016-08-13T01:26:38.480Z,22.4
2016-08-13T01:26:49.712Z,22.4
2016-08-13T01:27:00.934Z,22.4
2016-08-13T01:27:12.158Z,22.5
2016-08-13T01:27:23.384Z,22.4
2016-08-13T01:27:34.609Z,22.3
2016-08-13T01:27:45.107Z,22.4
2016-08-13T01:27:56.339Z,22.3
2016-08-13T01:28:07.563Z,22.4
2016-08-13T01:28:18.790Z,22.3
2016-08-13T01:28:30.015Z,22.3
2016-08-13T01:28:41.243Z,22.3
2016-08-13T01:28:52.687Z,22.4
2016-08-13T01:29:03.911Z,22.5
2016-08-13T01:29:15.137Z,22.4
2016-08-13T01:29:27.424Z,22.4
2016-08-13T01:29:38.649Z,22.4
2016-08-13T01:29:49.880Z,22.3
2016-08-13T01:30:01.107Z,22.4
2016-08-13T01:30:11.613Z,22.3
2016-08-13T01:30:22.833Z,22.3
2016-08-13T01:30:34.060Z,22.3
2016-08-13T01:30:45.289Z,22.3
2016-08-13T01:30:55.783Z,22.5
2016-08-13T01:31:06.284Z,22.4
2016-08-13T01:31:17.510Z,22.3
2016-08-13T01:31:28.740Z,22.3
2016-08-13T01:31:39.236Z,22.3
2016-08-13T01:31:49.730Z,22.4
2016-08-13T01:32:00.961Z,22.4
2016-08-13T01:32:12.185Z,22.3
2016-08-13T01:32:23.414Z,22.4
2016-08-13T01:32:34.638Z,22.3
2016-08-13T01:32:45.138Z,22.4
2016-08-13T01:32:56.373Z,22.3
2016-08-13T01:33:07.598Z,22.3
2016-08-13T01:33:18.828Z,22.3
2016-08-13T01:33:30.052Z,22.4
2016-08-13T01:33:41.284Z,22.5
2016-08-13T01:33:52.523Z,22.4
2016-08-13T01:34:03.033Z,22.3
2016-08-13T01:34:13.542Z,22.3
2016-08-13T01:34:24.785Z,22.4
2016-08-13T01:34:36.018Z,22.4
2016-08-13T01:34:47.252Z,22.4
2016-08-13T01:34:58.483Z,22.4
2016-08-13T01:35:09.718Z,22.4
2016-08-13T01:35:20.951Z,22.4
2016-08-13T01:35:32.184Z,22.4
2016-08-13T01:35:43.409Z,22.5
2016-08-13T01:35:54.636Z,22.4
2016-08-13T01:36:05.865Z,22.4
2016-08-13T01:36:17.090Z,22.3
2016-08-13T01:36:27.598Z,22.3
2016-08-13T01:36:38.823Z,22.3
2016-08-13T01:36:49.322Z,22.3
2016-08-13T01:37:00.543Z,22.4
2016-08-13T01:37:11.770Z,22.3
2016-08-13T01:37:22.264Z,22.3
2016-08-13T01:37:33.489Z,22.2
2016-08-13T01:37:44.716Z,22.2
2016-08-13T01:37:55.937Z,22.3
2016-08-13T01:38:07.120Z,22.2
2016-08-13T01:38:18.335Z,22.3
2016-08-13T01:38:29.539Z,22.3
2016-08-13T01:38:40.755Z,22.2
2016-08-13T01:38:51.959Z,22.2
2016-08-13T01:39:03.180Z,22.3
2016-08-13T01:39:14.386Z,22.2
2016-08-13T01:39:25.599Z,22.2
2016-08-13T01:39:36.802Z,22.2
2016-08-13T01:39:47.991Z,22.2
2016-08-13T01:39:59.202Z,22.2
2016-08-13T01:40:10.404Z,22.2
2016-08-13T01:40:21.604Z,22.3
2016-08-13T01:40:32.803Z,22.2
2016-08-13T01:40:44.005Z,22.2
2016-08-13T01:40:55.208Z,22.3
2016-08-13T01:41:06.390Z,22.3
2016-08-13T01:41:17.568Z,22.2
2016-08-13T01:41:28.796Z,22.3
2016-08-13T01:41:39.293Z,22.3
2016-08-13T01:41:50.525Z,22.2
2016-08-13T01:42:01.755Z,22.3
2016-08-13T01:42:12.980Z,22.3
2016-08-13T01:42:24.210Z,22.3
2016-08-13T01:42:35.437Z,22.3
2016-08-13T01:42:46.663Z,22.2
2016-08-13T01:42:57.160Z,22.3
2016-08-13T01:43:07.656Z,22.4
2016-08-13T01:43:18.885Z,22.3
2016-08-13T01:43:30.113Z,22.2
2016-08-13T01:43:41.350Z,22.3
2016-08-13T01:43:52.567Z,22.3
2016-08-13T01:44:03.795Z,22.3
2016-08-13T01:44:14.291Z,22.3
2016-08-13T01:44:25.523Z,22.4
2016-08-13T01:44:36.753Z,22.3
2016-08-13T01:44:47.976Z,22.3
2016-08-13T01:44:59.209Z,22.2
2016-08-13T01:45:10.433Z,22.2
2016-08-13T01:45:21.654Z,22.3
2016-08-13T01:45:32.893Z,22.3
2016-08-13T01:45:43.400Z,22.3
2016-08-13T01:45:54.633Z,22.1
2016-08-13T01:46:05.866Z,22.3
2016-08-13T01:46:17.110Z,22.2
2016-08-13T01:46:28.351Z,22.3
2016-08-13T01:46:39.598Z,22.3
2016-08-13T01:46:50.835Z,22.3
2016-08-13T01:47:02.074Z,22.3
2016-08-13T01:47:13.317Z,22.2
2016-08-13T01:47:24.559Z,22.3
2016-08-13T01:47:35.795Z,22.2
2016-08-13T01:47:46.310Z,22.2
2016-08-13T01:47:57.549Z,22.2
2016-08-13T01:48:08.796Z,22.2
2016-08-13T01:48:19.306Z,22.2
2016-08-13T01:48:30.545Z,22.4
2016-08-13T01:48:41.794Z,22.2
2016-08-13T01:48:53.033Z,22.3
2016-08-13T01:49:04.273Z,22.3
2016-08-13T01:49:15.515Z,22.2
2016-08-13T01:49:26.756Z,22.4
2016-08-13T01:49:37.997Z,22.3
2016-08-13T01:49:48.512Z,22.3
2016-08-13T01:49:59.751Z,22.3
2016-08-13T01:50:10.994Z,22.3
2016-08-13T01:50:22.235Z,22.2
2016-08-13T01:50:33.473Z,22.2
2016-08-13T01:50:43.994Z,22.2
2016-08-13T01:50:55.233Z,22.2
2016-08-13T01:51:06.475Z,22.2
2016-08-13T01:51:17.712Z,22.3
2016-08-13T01:51:28.956Z,22.2
2016-08-13T01:51:39.470Z,22.2
2016-08-13T01:51:50.709Z,22.2
2016-08-13T01:52:01.949Z,22.4
2016-08-13T01:52:13.186Z,22.3
2016-08-13T01:52:23.694Z,22.3
2016-08-13T01:52:34.936Z,22.4
2016-08-13T01:52:46.181Z,22.3
2016-08-13T01:52:57.425Z,22.3
2016-08-13T01:53:08.663Z,22.3
2016-08-13T01:53:19.908Z,22.3
2016-08-13T01:53:31.151Z,22.3
2016-08-13T01:53:42.395Z,22.3
2016-08-13T01:53:54.696Z,22.3
2016-08-13T01:54:05.933Z,22.4
2016-08-13T01:54:17.173Z,22.4
2016-08-13T01:54:28.418Z,22.2
2016-08-13T01:54:38.929Z,22.2
2016-08-13T01:54:50.166Z,22.3
2016-08-13T01:55:01.410Z,22.2
2016-08-13T01:55:11.920Z,22.2
2016-08-13T01:55:23.164Z,22.2
2016-08-13T01:55:34.400Z,22.3
2016-08-13T01:55:45.642Z,22.2
2016-08-13T01:55:57.942Z,22.1
2016-08-13T01:56:09.191Z,22.4
2016-08-13T01:56:20.427Z,22.2
2016-08-13T01:56:31.666Z,22.2
2016-08-13T01:56:42.903Z,22.2
2016-08-13T01:56:54.154Z,22.3
2016-08-13T01:57:05.392Z,22.2
2016-08-13T01:57:16.630Z,22.2
2016-08-13T01:57:27.870Z,22.2
2016-08-13T01:57:39.111Z,22.2
2016-08-13T01:57:50.350Z,22.2
2016-08-13T01:58:02.656Z,22.3
2016-08-13T01:58:13.895Z,22.2
2016-08-13T01:58:25.135Z,22.2
2016-08-13T01:58:35.646Z,22.2
2016-08-13T01:58:46.886Z,22.3
2016-08-13T01:58:58.125Z,22.2
2016-08-13T01:59:09.369Z,22.2
2016-08-13T01:59:20.604Z,22.3
2016-08-13T01:59:31.845Z,22.4
2016-08-13T01:59:42.354Z,22.4
2016-08-13T01:59:53.599Z,22.4
2016-08-13T02:00:04.836Z,22.2
2016-08-13T02:00:16.078Z,22.3
2016-08-13T02:00:27.321Z,22.3
2016-08-13T02:00:38.559Z,22.2
2016-08-13T02:00:49.797Z,22.2
2016-08-13T02:01:01.037Z,22.2
2016-08-13T02:01:11.548Z,22.2
2016-08-13T02:01:22.784Z,22.3
2016-08-13T02:01:34.025Z,22.3
2016-08-13T02:01:44.534Z,22.2
2016-08-13T02:01:55.055Z,22.4
2016-08-13T02:02:06.295Z,22.2
2016-08-13T02:02:17.537Z,22.3
2016-08-13T02:02:28.776Z,22.3
2016-08-13T02:02:39.288Z,22.4
2016-08-13T02:02:49.797Z,22.3
2016-08-13T02:03:02.101Z,22.3
2016-08-13T02:03:13.341Z,22.3
2016-08-13T02:03:24.585Z,22.2
2016-08-13T02:03:35.835Z,22.3
2016-08-13T02:03:47.075Z,22.3
2016-08-13T02:03:58.314Z,22.2
2016-08-13T02:04:09.557Z,22.2
2016-08-13T02:04:20.075Z,22.2
2016-08-13T02:04:31.318Z,22.2
2016-08-13T02:04:42.554Z,22.2
2016-08-13T02:04:53.062Z,22.3
2016-08-13T02:05:04.301Z,22.1
2016-08-13T02:05:15.545Z,22.2
2016-08-13T02:05:26.778Z,22.2
2016-08-13T02:05:38.017Z,22.2
2016-08-13T02:05:49.254Z,22.2
2016-08-13T02:06:01.554Z,22.2
2016-08-13T02:06:12.793Z,22.2
2016-08-13T02:06:24.036Z,22.2
2016-08-13T02:06:35.273Z,22.2
2016-08-13T02:06:46.513Z,22.3
2016-08-13T02:06:57.755Z,22.2
2016-08-13T02:07:09.000Z,22.2
2016-08-13T02:07:19.508Z,22.2
2016-08-13T02:07:30.747Z,22.3
2016-08-13T02:07:41.986Z,22.2
2016-08-13T02:07:53.240Z,22.2
2016-08-13T02:08:04.478Z,22.3
2016-08-13T02:08:15.715Z,22.2
2016-08-13T02:08:26.954Z,22.2
2016-08-13T02:08:38.202Z,22.2
2016-08-13T02:08:49.450Z,22.2
2016-08-13T02:09:00.680Z,22.2
2016-08-13T02:09:11.929Z,22.2
2016-08-13T02:09:23.171Z,22.2
2016-08-13T02:09:34.429Z,22.2
2016-08-13T02:09:45.671Z,22.2
2016-08-13T02:09:56.916Z,22.2
2016-08-13T02:10:07.430Z,22.3
2016-08-13T02:10:18.670Z,22.2
2016-08-13T02:10:29.915Z,22.2
2016-08-13T02:10:41.153Z,22.2
2016-08-13T02:10:51.677Z,22.2
2016-08-13T02:11:02.927Z,22.1
2016-08-13T02:11:14.217Z,22.2
2016-08-13T02:11:24.720Z,22.2
2016-08-13T02:11:35.957Z,22.3
2016-08-13T02:11:47.200Z,22.2
2016-08-13T02:11:58.440Z,22.2
2016-08-13T02:12:09.692Z,22.2
2016-08-13T02:12:21.100Z,22.2
2016-08-13T02:12:32.341Z,22.2
2016-08-13T02:12:43.580Z,22.2
2016-08-13T02:12:54.097Z,22.2
2016-08-13T02:13:05.332Z,22.2
2016-08-13T02:13:16.570Z,22.3
2016-08-13T02:13:27.080Z,22.2
2016-08-13T02:13:38.321Z,22.2
2016-08-13T02:13:49.559Z,22.2
2016-08-13T02:14:00.798Z,22.2
2016-08-13T02:14:12.036Z,22.2
2016-08-13T02:14:22.558Z,22.2
2016-08-13T02:14:33.802Z,22.2
2016-08-13T02:14:45.038Z,22.2
2016-08-13T02:14:56.280Z,22.2
2016-08-13T02:15:07.522Z,22.2
2016-08-13T02:15:18.763Z,22.2
2016-08-13T02:15:30.011Z,22.2
2016-08-13T02:15:41.246Z,22.2
2016-08-13T02:15:52.486Z,22.2
2016-08-13T02:16:03.728Z,22.2
2016-08-13T02:16:14.241Z,22.1
2016-08-13T02:16:25.482Z,22.2
2016-08-13T02:16:36.727Z,22.2
2016-08-13T02:16:47.971Z,22.3
2016-08-13T02:16:59.208Z,22.2
2016-08-13T02:17:10.446Z,22.2
2016-08-13T02:17:21.691Z,22.1
2016-08-13T02:17:32.201Z,22.2
2016-08-13T02:17:43.437Z,22.2
2016-08-13T02:17:54.680Z,22.1
2016-08-13T02:18:05.919Z,22.2
2016-08-13T02:18:17.173Z,22.2
2016-08-13T02:18:27.674Z,22.2
2016-08-13T02:18:38.917Z,22.2
2016-08-13T02:18:50.154Z,22.2
2016-08-13T02:19:01.394Z,22.2
2016-08-13T02:19:12.636Z,22.1
2016-08-13T02:19:23.873Z,22.2
2016-08-13T02:19:35.112Z,22.1
2016-08-13T02:19:46.359Z,22.2
2016-08-13T02:19:56.882Z,22.1
2016-08-13T02:20:08.110Z,22.2
2016-08-13T02:20:19.356Z,22.1
2016-08-13T02:20:30.597Z,22.2
2016-08-13T02:20:41.107Z,22.2
2016-08-13T02:20:52.351Z,22.2
2016-08-13T02:21:03.587Z,22.2
2016-08-13T02:21:14.826Z,22.2
2016-08-13T02:21:25.337Z,22.2
2016-08-13T02:21:36.577Z,22.2
2016-08-13T02:21:47.814Z,22.2
2016-08-13T02:21:59.070Z,22.2
2016-08-13T02:22:09.581Z,22.2
2016-08-13T02:22:20.825Z,22.2
2016-08-13T02:22:32.062Z,22.2
2016-08-13T02:22:44.362Z,22.2
2016-08-13T02:22:55.604Z,22.2
2016-08-13T02:23:06.118Z,22.2
2016-08-13T02:23:17.359Z,22.2
2016-08-13T02:23:28.600Z,22.2
2016-08-13T02:23:39.840Z,22.2
2016-08-13T02:23:51.079Z,22.2
2016-08-13T02:24:02.322Z,22.2
2016-08-13T02:24:13.561Z,22.2
2016-08-13T02:24:24.799Z,22.1
2016-08-13T02:24:36.041Z,22.2
2016-08-13T02:24:47.287Z,22.1
2016-08-13T02:24:58.527Z,22.1
2016-08-13T02:25:09.768Z,22.2
2016-08-13T02:25:21.005Z,22.2
2016-08-13T02:25:32.247Z,22.1
2016-08-13T02:25:43.488Z,22.2
2016-08-13T02:25:54.734Z,22.1
2016-08-13T02:26:05.976Z,22.1
2016-08-13T02:26:17.219Z,22.2
2016-08-13T02:26:28.457Z,22
2016-08-13T02:26:39.701Z,22.2
2016-08-13T02:26:50.216Z,22.1
2016-08-13T02:27:01.449Z,22.2
2016-08-13T02:27:12.685Z,22.2
2016-08-13T02:27:23.929Z,22.2
2016-08-13T02:27:35.172Z,22.1
2016-08-13T02:27:45.687Z,22.1
2016-08-13T02:27:56.926Z,22.2
2016-08-13T02:28:07.430Z,22.1